sensor_id;sensor_type;location;lat;lon;timestamp;pressure;altitude;pressure_sealevel;temperature;humidity
6038;BME280;3047;42.600;23.470;2023-03-11T00:01:31;91258.72;;;10.55;100.00
6038;BME280;3047;42.600;23.470;2023-03-11T00:03:59;91254.75;;;10.65;100.00
6038;BME280;3047;42.600;23.470;2023-03-11T00:06:26;91191.47;;;10.25;100.00
6038;BME280;3047;42.600;23.470;2023-03-11T00:08:53;91252.34;;;10.63;100.00
6038;BME280;3047;42.600;23.470;2023-03-11T00:11:19;91254.94;;;10.76;100.00
6038;BME280;3047;42.600;23.470;2023-03-11T00:13:46;91260.81;;;10.77;100.00
6038;BME280;3047;42.600;23.470;2023-03-11T00:16:13;91242.69;;;10.70;100.00
6038;BME280;3047;42.600;23.470;2023-03-11T00:18:40;91243.50;;;10.71;100.00
6038;BME280;3047;42.600;23.470;2023-03-11T00:21:13;91280.41;;;10.87;100.00
6038;BME280;3047;42.600;23.470;2023-03-11T00:23:40;91271.75;;;10.92;100.00
6038;BME280;3047;42.600;23.470;2023-03-11T00:26:07;91282.19;;;11.00;100.00
6038;BME280;3047;42.600;23.470;2023-03-11T00:28:33;91229.72;;;10.62;100.00
6038;BME280;3047;42.600;23.470;2023-03-11T00:31:01;91280.38;;;10.73;100.00
6038;BME280;3047;42.600;23.470;2023-03-11T00:33:28;91290.41;;;10.75;100.00
6038;BME280;3047;42.600;23.470;2023-03-11T00:35:54;91292.94;;;10.75;100.00
6038;BME280;3047;42.600;23.470;2023-03-11T00:38:22;91280.91;;;10.64;100.00
6038;BME280;3047;42.600;23.470;2023-03-11T00:40:49;91237.06;;;10.36;100.00
6038;BME280;3047;42.600;23.470;2023-03-11T00:43:16;91247.34;;;10.48;100.00
6038;BME280;3047;42.600;23.470;2023-03-11T00:45:43;91235.47;;;10.50;100.00
6038;BME280;3047;42.600;23.470;2023-03-11T00:48:11;91232.38;;;10.30;100.00
6038;BME280;3047;42.600;23.470;2023-03-11T00:50:39;91272.81;;;10.73;100.00
6038;BME280;3047;42.600;23.470;2023-03-11T00:53:05;91299.31;;;10.80;100.00
6038;BME280;3047;42.600;23.470;2023-03-11T00:55:34;91254.50;;;10.55;100.00
6038;BME280;3047;42.600;23.470;2023-03-11T00:58:02;91296.44;;;10.58;100.00
6038;BME280;3047;42.600;23.470;2023-03-11T01:00:31;91295.47;;;10.45;100.00
6038;BME280;3047;42.600;23.470;2023-03-11T01:02:58;91241.94;;;10.09;100.00
6038;BME280;3047;42.600;23.470;2023-03-11T01:05:27;91274.72;;;10.25;100.00
6038;BME280;3047;42.600;23.470;2023-03-11T01:07:54;91257.00;;;10.11;100.00
6038;BME280;3047;42.600;23.470;2023-03-11T01:10:21;91114.44;;;9.15;100.00
6038;BME280;3047;42.600;23.470;2023-03-11T01:12:49;91241.84;;;9.97;100.00
6038;BME280;3047;42.600;23.470;2023-03-11T01:15:19;91229.53;;;9.90;100.00
6038;BME280;3047;42.600;23.470;2023-03-11T01:17:46;91215.88;;;9.95;100.00
6038;BME280;3047;42.600;23.470;2023-03-11T01:20:13;91170.41;;;9.66;100.00
6038;BME280;3047;42.600;23.470;2023-03-11T01:22:40;91199.56;;;9.86;100.00
6038;BME280;3047;42.600;23.470;2023-03-11T01:25:08;91155.44;;;9.49;100.00
6038;BME280;3047;42.600;23.470;2023-03-11T01:27:35;91147.44;;;9.56;100.00
6038;BME280;3047;42.600;23.470;2023-03-11T01:30:04;91204.59;;;9.86;100.00
6038;BME280;3047;42.600;23.470;2023-03-11T01:32:31;91188.81;;;9.82;100.00
6038;BME280;3047;42.600;23.470;2023-03-11T01:34:58;91193.97;;;9.81;100.00
6038;BME280;3047;42.600;23.470;2023-03-11T01:37:25;91189.38;;;9.87;100.00
6038;BME280;3047;42.600;23.470;2023-03-11T01:39:51;91171.44;;;9.78;100.00
6038;BME280;3047;42.600;23.470;2023-03-11T01:42:18;91140.44;;;9.61;100.00
6038;BME280;3047;42.600;23.470;2023-03-11T01:44:45;91163.34;;;9.87;100.00
6038;BME280;3047;42.600;23.470;2023-03-11T01:47:32;91173.97;;;9.92;100.00
6038;BME280;3047;42.600;23.470;2023-03-11T01:50:00;91137.88;;;9.91;100.00
6038;BME280;3047;42.600;23.470;2023-03-11T01:52:27;91132.56;;;9.96;100.00
6038;BME280;3047;42.600;23.470;2023-03-11T01:54:55;91130.03;;;9.96;100.00
6038;BME280;3047;42.600;23.470;2023-03-11T01:57:22;91128.97;;;10.00;100.00
6038;BME280;3047;42.600;23.470;2023-03-11T01:59:51;91137.81;;;9.93;100.00
6038;BME280;3047;42.600;23.470;2023-03-11T02:02:22;91144.19;;;9.99;100.00
6038;BME280;3047;42.600;23.470;2023-03-11T02:04:52;91169.03;;;9.90;100.00
6038;BME280;3047;42.600;23.470;2023-03-11T02:07:20;91176.25;;;9.97;100.00
6038;BME280;3047;42.600;23.470;2023-03-11T02:09:46;91179.22;;;10.03;100.00
6038;BME280;3047;42.600;23.470;2023-03-11T02:12:14;91194.78;;;9.96;100.00
6038;BME280;3047;42.600;23.470;2023-03-11T02:14:43;91138.81;;;9.60;100.00
6038;BME280;3047;42.600;23.470;2023-03-11T02:17:11;91187.59;;;9.89;100.00
6038;BME280;3047;42.600;23.470;2023-03-11T02:19:58;91200.84;;;9.93;100.00
6038;BME280;3047;42.600;23.470;2023-03-11T02:22:28;91144.91;;;9.56;100.00
6038;BME280;3047;42.600;23.470;2023-03-11T02:25:02;91212.19;;;10.00;100.00
6038;BME280;3047;42.600;23.470;2023-03-11T02:27:32;91101.03;;;9.14;100.00
6038;BME280;3047;42.600;23.470;2023-03-11T02:30:01;91222.78;;;9.91;100.00
6038;BME280;3047;42.600;23.470;2023-03-11T02:32:29;91166.59;;;9.59;100.00
6038;BME280;3047;42.600;23.470;2023-03-11T02:34:55;91243.09;;;10.04;100.00
6038;BME280;3047;42.600;23.470;2023-03-11T02:37:22;91244.72;;;10.05;100.00
6038;BME280;3047;42.600;23.470;2023-03-11T02:39:51;91207.06;;;9.72;100.00
6038;BME280;3047;42.600;23.470;2023-03-11T02:42:24;91228.56;;;9.93;100.00
6038;BME280;3047;42.600;23.470;2023-03-11T02:44:56;91228.56;;;9.93;100.00
6038;BME280;3047;42.600;23.470;2023-03-11T02:47:25;91238.56;;;9.95;100.00
6038;BME280;3047;42.600;23.470;2023-03-11T02:49:53;91228.09;;;9.86;100.00
6038;BME280;3047;42.600;23.470;2023-03-11T02:52:22;91193.00;;;9.68;100.00
6038;BME280;3047;42.600;23.470;2023-03-11T02:54:50;91121.53;;;9.08;100.00
6038;BME280;3047;42.600;23.470;2023-03-11T02:57:17;91227.78;;;9.93;100.00
6038;BME280;3047;42.600;23.470;2023-03-11T02:59:43;91210.84;;;9.64;100.00
6038;BME280;3047;42.600;23.470;2023-03-11T03:02:11;91238.13;;;9.72;100.00
6038;BME280;3047;42.600;23.470;2023-03-11T03:04:38;91220.81;;;9.66;100.00
6038;BME280;3047;42.600;23.470;2023-03-11T03:07:05;91235.28;;;9.78;100.00
6038;BME280;3047;42.600;23.470;2023-03-11T03:09:32;91244.38;;;9.81;100.00
6038;BME280;3047;42.600;23.470;2023-03-11T03:12:00;91247.31;;;9.73;100.00
6038;BME280;3047;42.600;23.470;2023-03-11T03:14:28;91238.13;;;9.72;100.00
6038;BME280;3047;42.600;23.470;2023-03-11T03:16:54;91234.03;;;9.85;100.00
6038;BME280;3047;42.600;23.470;2023-03-11T03:19:22;91226.75;;;9.81;100.00
6038;BME280;3047;42.600;23.470;2023-03-11T03:21:49;91232.16;;;9.89;100.00
6038;BME280;3047;42.600;23.470;2023-03-11T03:24:16;91210.59;;;9.83;100.00
6038;BME280;3047;42.600;23.470;2023-03-11T03:26:42;91176.69;;;9.59;100.00
6038;BME280;3047;42.600;23.470;2023-03-11T03:29:09;91195.22;;;9.58;100.00
6038;BME280;3047;42.600;23.470;2023-03-11T03:31:37;91223.97;;;9.85;100.00
6038;BME280;3047;42.600;23.470;2023-03-11T03:34:04;91238.72;;;9.91;100.00
6038;BME280;3047;42.600;23.470;2023-03-11T03:36:32;91236.84;;;9.95;100.00
6038;BME280;3047;42.600;23.470;2023-03-11T03:38:58;91221.28;;;9.88;100.00
6038;BME280;3047;42.600;23.470;2023-03-11T03:41:26;91224.09;;;9.98;100.00
6038;BME280;3047;42.600;23.470;2023-03-11T03:43:53;91226.25;;;10.04;100.00
6038;BME280;3047;42.600;23.470;2023-03-11T03:46:20;91223.81;;;10.03;100.00
6038;BME280;3047;42.600;23.470;2023-03-11T03:48:47;91224.63;;;10.03;100.00
6038;BME280;3047;42.600;23.470;2023-03-11T03:51:14;91187.03;;;9.84;100.00
6038;BME280;3047;42.600;23.470;2023-03-11T03:53:43;91226.56;;;10.14;100.00
6038;BME280;3047;42.600;23.470;2023-03-11T03:56:13;91193.97;;;9.95;100.00
6038;BME280;3047;42.600;23.470;2023-03-11T03:58:39;91201.03;;;10.04;100.00
6038;BME280;3047;42.600;23.470;2023-03-11T04:01:07;91230.59;;;10.16;100.00
6038;BME280;3047;42.600;23.470;2023-03-11T04:03:34;91168.66;;;9.82;100.00
6038;BME280;3047;42.600;23.470;2023-03-11T04:06:06;91227.00;;;10.21;100.00
6038;BME280;3047;42.600;23.470;2023-03-11T04:08:33;91221.88;;;10.22;100.00
6038;BME280;3047;42.600;23.470;2023-03-11T04:11:02;91195.44;;;9.99;100.00
6038;BME280;3047;42.600;23.470;2023-03-11T04:13:28;91219.69;;;10.16;100.00
6038;BME280;3047;42.600;23.470;2023-03-11T04:15:55;91228.81;;;10.19;100.00
6038;BME280;3047;42.600;23.470;2023-03-11T04:18:22;91227.47;;;10.13;100.00
6038;BME280;3047;42.600;23.470;2023-03-11T04:20:51;91230.53;;;10.18;100.00
6038;BME280;3047;42.600;23.470;2023-03-11T04:23:18;91225.66;;;10.15;100.00
6038;BME280;3047;42.600;23.470;2023-03-11T04:25:44;91236.31;;;10.04;100.00
6038;BME280;3047;42.600;23.470;2023-03-11T04:28:12;91230.16;;;10.10;100.00
6038;BME280;3047;42.600;23.470;2023-03-11T04:30:39;91203.25;;;9.95;100.00
6038;BME280;3047;42.600;23.470;2023-03-11T04:33:06;91226.19;;;10.06;100.00
6038;BME280;3047;42.600;23.470;2023-03-11T04:35:33;91231.66;;;9.98;100.00
6038;BME280;3047;42.600;23.470;2023-03-11T04:38:00;91239.69;;;10.05;100.00
6038;BME280;3047;42.600;23.470;2023-03-11T04:40:26;91238.09;;;9.88;100.00
6038;BME280;3047;42.600;23.470;2023-03-11T04:42:53;91223.44;;;9.95;100.00
6038;BME280;3047;42.600;23.470;2023-03-11T04:45:21;91217.59;;;9.94;100.00
6038;BME280;3047;42.600;23.470;2023-03-11T04:47:48;91212.00;;;9.89;100.00
6038;BME280;3047;42.600;23.470;2023-03-11T04:50:15;91185.81;;;9.76;100.00
6038;BME280;3047;42.600;23.470;2023-03-11T04:52:42;91221.88;;;9.92;100.00
6038;BME280;3047;42.600;23.470;2023-03-11T04:55:10;91215.59;;;9.85;100.00
6038;BME280;3047;42.600;23.470;2023-03-11T04:57:38;91220.78;;;9.82;100.00
6038;BME280;3047;42.600;23.470;2023-03-11T05:00:05;91233.19;;;10.01;100.00
6038;BME280;3047;42.600;23.470;2023-03-11T05:02:37;91242.38;;;10.02;100.00
6038;BME280;3047;42.600;23.470;2023-03-11T05:05:06;91242.53;;;9.99;100.00
6038;BME280;3047;42.600;23.470;2023-03-11T05:07:34;91248.78;;;10.07;100.00
6038;BME280;3047;42.600;23.470;2023-03-11T05:10:00;91254.13;;;10.17;100.00
6038;BME280;3047;42.600;23.470;2023-03-11T05:12:27;91263.50;;;10.15;100.00
6038;BME280;3047;42.600;23.470;2023-03-11T05:14:54;91212.81;;;9.89;100.00
6038;BME280;3047;42.600;23.470;2023-03-11T05:17:21;91269.69;;;10.25;100.00
6038;BME280;3047;42.600;23.470;2023-03-11T05:19:50;91276.72;;;10.34;100.00
6038;BME280;3047;42.600;23.470;2023-03-11T05:22:18;91279.25;;;10.34;100.00
6038;BME280;3047;42.600;23.470;2023-03-11T05:24:45;91269.22;;;10.33;100.00
6038;BME280;3047;42.600;23.470;2023-03-11T05:27:13;91267.00;;;10.43;100.00
6038;BME280;3047;42.600;23.470;2023-03-11T05:29:42;91276.94;;;10.46;100.00
6038;BME280;3047;42.600;23.470;2023-03-11T05:32:09;91282.16;;;10.43;100.00
6038;BME280;3047;42.600;23.470;2023-03-11T05:34:36;91269.78;;;10.38;100.00
6038;BME280;3047;42.600;23.470;2023-03-11T05:37:04;91261.31;;;10.39;100.00
6038;BME280;3047;42.600;23.470;2023-03-11T05:39:32;91300.09;;;10.52;100.00
6038;BME280;3047;42.600;23.470;2023-03-11T05:41:58;91300.19;;;10.65;100.00
6038;BME280;3047;42.600;23.470;2023-03-11T05:44:25;91286.22;;;10.59;100.00
6038;BME280;3047;42.600;23.470;2023-03-11T05:46:52;91298.69;;;10.62;100.00
6038;BME280;3047;42.600;23.470;2023-03-11T05:49:19;91302.50;;;10.70;100.00
6038;BME280;3047;42.600;23.470;2023-03-11T05:51:46;91285.97;;;10.50;100.00
6038;BME280;3047;42.600;23.470;2023-03-11T05:54:14;91275.13;;;10.48;100.00
6038;BME280;3047;42.600;23.470;2023-03-11T05:56:41;91310.66;;;10.73;100.00
6038;BME280;3047;42.600;23.470;2023-03-11T05:59:09;91294.63;;;10.60;100.00
6038;BME280;3047;42.600;23.470;2023-03-11T06:01:35;91319.63;;;10.79;100.00
6038;BME280;3047;42.600;23.470;2023-03-11T06:04:02;91322.78;;;10.82;100.00
6038;BME280;3047;42.600;23.470;2023-03-11T06:06:29;91319.72;;;10.92;100.00
6038;BME280;3047;42.600;23.470;2023-03-11T06:08:56;91318.66;;;10.96;100.00
6038;BME280;3047;42.600;23.470;2023-03-11T06:11:24;91209.13;;;10.25;100.00
6038;BME280;3047;42.600;23.470;2023-03-11T06:13:52;91323.53;;;10.99;100.00
6038;BME280;3047;42.600;23.470;2023-03-11T06:16:19;91328.13;;;10.78;100.00
6038;BME280;3047;42.600;23.470;2023-03-11T06:18:46;91324.84;;;10.76;100.00
6038;BME280;3047;42.600;23.470;2023-03-11T06:21:16;91325.59;;;10.48;100.00
6038;BME280;3047;42.600;23.470;2023-03-11T06:23:43;91323.25;;;10.45;100.00
6038;BME280;3047;42.600;23.470;2023-03-11T06:26:11;91287.53;;;10.21;100.00
6038;BME280;3047;42.600;23.470;2023-03-11T06:28:41;91323.50;;;10.40;100.00
6038;BME280;3047;42.600;23.470;2023-03-11T06:31:09;91328.06;;;10.49;100.00
6038;BME280;3047;42.600;23.470;2023-03-11T06:33:36;91316.69;;;10.56;100.00
6038;BME280;3047;42.600;23.470;2023-03-11T06:36:04;91274.38;;;10.31;100.00
6038;BME280;3047;42.600;23.470;2023-03-11T06:38:32;91324.84;;;10.61;100.00
6038;BME280;3047;42.600;23.470;2023-03-11T06:40:59;91324.31;;;10.71;100.00
6038;BME280;3047;42.600;23.470;2023-03-11T06:43:27;91328.19;;;10.76;100.00
6038;BME280;3047;42.600;23.470;2023-03-11T06:45:55;91309.97;;;10.71;100.00
6038;BME280;3047;42.600;23.470;2023-03-11T06:48:22;91320.53;;;10.92;100.00
6038;BME280;3047;42.600;23.470;2023-03-11T06:50:53;91320.91;;;11.00;100.00
6038;BME280;3047;42.600;23.470;2023-03-11T06:53:21;91320.56;;;11.06;100.00
6038;BME280;3047;42.600;23.470;2023-03-11T06:55:57;91320.19;;;11.12;100.00
6038;BME280;3047;42.600;23.470;2023-03-11T06:58:25;91272.44;;;10.94;100.00
6038;BME280;3047;42.600;23.470;2023-03-11T07:00:52;91214.38;;;10.65;100.00
6038;BME280;3047;42.600;23.470;2023-03-11T07:03:20;91325.41;;;11.38;100.00
6038;BME280;3047;42.600;23.470;2023-03-11T07:05:49;91303.31;;;11.27;100.00
6038;BME280;3047;42.600;23.470;2023-03-11T07:08:17;91332.00;;;11.41;100.00
6038;BME280;3047;42.600;23.470;2023-03-11T07:10:44;91328.84;;;11.51;100.00
6038;BME280;3047;42.600;23.470;2023-03-11T07:13:10;91255.69;;;11.07;100.00
6038;BME280;3047;42.600;23.470;2023-03-11T07:15:37;91329.13;;;11.47;100.00
6038;BME280;3047;42.600;23.470;2023-03-11T07:18:04;91329.91;;;11.47;100.00
6038;BME280;3047;42.600;23.470;2023-03-11T07:20:32;91323.31;;;11.45;100.00
6038;BME280;3047;42.600;23.470;2023-03-11T07:22:59;91330.28;;;11.55;100.00
6038;BME280;3047;42.600;23.470;2023-03-11T07:25:25;91320.50;;;11.63;100.00
6038;BME280;3047;42.600;23.470;2023-03-11T07:27:52;91325.53;;;11.78;100.00
6038;BME280;3047;42.600;23.470;2023-03-11T07:30:19;91309.09;;;11.71;100.00
6038;BME280;3047;42.600;23.470;2023-03-11T07:32:45;91315.88;;;11.70;100.00
6038;BME280;3047;42.600;23.470;2023-03-11T07:35:12;91308.28;;;11.70;100.00
6038;BME280;3047;42.600;23.470;2023-03-11T07:37:40;91307.41;;;11.71;100.00
6038;BME280;3047;42.600;23.470;2023-03-11T07:40:08;91309.09;;;11.71;100.00
6038;BME280;3047;42.600;23.470;2023-03-11T07:42:35;91266.03;;;11.58;100.00
6038;BME280;3047;42.600;23.470;2023-03-11T07:45:02;91291.50;;;11.83;100.00
6038;BME280;3047;42.600;23.470;2023-03-11T07:47:28;91293.94;;;11.85;100.00
6038;BME280;3047;42.600;23.470;2023-03-11T07:49:55;91297.88;;;11.89;100.00
6038;BME280;3047;42.600;23.470;2023-03-11T07:52:22;91301.53;;;12.12;100.00
6038;BME280;3047;42.600;23.470;2023-03-11T07:54:50;91310.28;;;12.33;100.00
6038;BME280;3047;42.600;23.470;2023-03-11T07:57:17;91293.00;;;12.40;96.21
6038;BME280;3047;42.600;23.470;2023-03-11T07:59:43;91294.69;;;12.40;97.08
6038;BME280;3047;42.600;23.470;2023-03-11T08:02:10;91278.59;;;12.28;97.30
6038;BME280;3047;42.600;23.470;2023-03-11T08:04:37;91284.16;;;12.33;97.11
6038;BME280;3047;42.600;23.470;2023-03-11T08:07:03;91275.81;;;12.18;97.13
6038;BME280;3047;42.600;23.470;2023-03-11T08:09:30;91279.38;;;12.28;97.41
6038;BME280;3047;42.600;23.470;2023-03-11T08:11:58;91276.69;;;12.44;97.96
6038;BME280;3047;42.600;23.470;2023-03-11T08:14:25;91259.38;;;12.63;97.41
6038;BME280;3047;42.600;23.470;2023-03-11T08:16:52;91262.09;;;12.99;95.54
6038;BME280;3047;42.600;23.470;2023-03-11T08:19:18;91261.88;;;13.15;91.50
6038;BME280;3047;42.600;23.470;2023-03-11T08:21:45;91246.00;;;13.25;90.15
6038;BME280;3047;42.600;23.470;2023-03-11T08:24:13;91225.81;;;13.11;87.94
6038;BME280;3047;42.600;23.470;2023-03-11T08:26:40;91226.28;;;13.16;89.65
6038;BME280;3047;42.600;23.470;2023-03-11T08:29:08;91252.16;;;13.21;88.76
6038;BME280;3047;42.600;23.470;2023-03-11T08:31:35;91251.34;;;13.08;85.76
6038;BME280;3047;42.600;23.470;2023-03-11T08:34:04;91218.31;;;12.84;85.05
6038;BME280;3047;42.600;23.470;2023-03-11T08:36:31;91251.78;;;12.76;85.98
6038;BME280;3047;42.600;23.470;2023-03-11T08:38:59;91232.44;;;12.62;84.82
6038;BME280;3047;42.600;23.470;2023-03-11T08:41:26;91228.78;;;12.54;87.72
6038;BME280;3047;42.600;23.470;2023-03-11T08:43:53;91228.66;;;12.55;90.25
6038;BME280;3047;42.600;23.470;2023-03-11T08:46:23;91239.41;;;12.72;85.79
6038;BME280;3047;42.600;23.470;2023-03-11T08:48:50;91221.69;;;12.72;85.59
6038;BME280;3047;42.600;23.470;2023-03-11T08:51:17;91230.91;;;12.73;83.89
6038;BME280;3047;42.600;23.470;2023-03-11T08:53:44;91200.31;;;12.63;85.73
6038;BME280;3047;42.600;23.470;2023-03-11T08:56:11;91208.50;;;12.79;85.36
6038;BME280;3047;42.600;23.470;2023-03-11T08:58:38;91219.25;;;12.83;83.96
6038;BME280;3047;42.600;23.470;2023-03-11T09:01:05;91206.50;;;12.84;83.70
6038;BME280;3047;42.600;23.470;2023-03-11T09:03:35;91207.38;;;12.83;83.25
6038;BME280;3047;42.600;23.470;2023-03-11T09:06:04;91190.28;;;12.61;83.20
6038;BME280;3047;42.600;23.470;2023-03-11T09:08:32;91213.38;;;12.82;84.34
6038;BME280;3047;42.600;23.470;2023-03-11T09:10:59;91206.25;;;12.87;83.53
6038;BME280;3047;42.600;23.470;2023-03-11T09:13:26;91202.94;;;12.87;85.31
6038;BME280;3047;42.600;23.470;2023-03-11T09:15:53;91168.69;;;12.81;85.42
6038;BME280;3047;42.600;23.470;2023-03-11T09:18:20;91131.75;;;12.53;85.07
6038;BME280;3047;42.600;23.470;2023-03-11T09:20:48;91194.13;;;12.93;85.71
6038;BME280;3047;42.600;23.470;2023-03-11T09:23:16;91185.47;;;12.95;83.98
6038;BME280;3047;42.600;23.470;2023-03-11T09:25:43;91190.06;;;12.90;84.86
6038;BME280;3047;42.600;23.470;2023-03-11T09:28:10;91189.09;;;13.04;84.23
6038;BME280;3047;42.600;23.470;2023-03-11T09:30:36;91188.81;;;13.08;83.61
6038;BME280;3047;42.600;23.470;2023-03-11T09:33:03;91195.72;;;13.06;85.00
6038;BME280;3047;42.600;23.470;2023-03-11T09:35:30;91192.44;;;13.04;85.90
6038;BME280;3047;42.600;23.470;2023-03-11T09:37:58;91188.19;;;13.18;87.06
6038;BME280;3047;42.600;23.470;2023-03-11T09:40:27;91186.16;;;13.23;83.79
6038;BME280;3047;42.600;23.470;2023-03-11T09:43:05;91168.53;;;13.08;87.23
6038;BME280;3047;42.600;23.470;2023-03-11T09:45:40;91191.31;;;13.21;83.96
6038;BME280;3047;42.600;23.470;2023-03-11T09:48:19;91194.38;;;13.26;85.01
6038;BME280;3047;42.600;23.470;2023-03-11T09:50:49;91189.78;;;13.31;83.69
6038;BME280;3047;42.600;23.470;2023-03-11T09:53:28;91195.53;;;13.46;80.35
6038;BME280;3047;42.600;23.470;2023-03-11T09:55:59;91180.59;;;13.54;81.57
6038;BME280;3047;42.600;23.470;2023-03-11T09:58:35;91185.47;;;13.69;80.78
6038;BME280;3047;42.600;23.470;2023-03-11T10:01:13;91187.38;;;13.78;81.97
6038;BME280;3047;42.600;23.470;2023-03-11T10:03:42;91152.16;;;13.62;79.15
6038;BME280;3047;42.600;23.470;2023-03-11T10:06:14;91159.56;;;13.76;82.27
6038;BME280;3047;42.600;23.470;2023-03-11T10:08:46;91163.97;;;13.74;83.67
6038;BME280;3047;42.600;23.470;2023-03-11T10:11:30;91136.38;;;13.70;82.81
6038;BME280;3047;42.600;23.470;2023-03-11T10:14:11;91169.66;;;13.89;83.17
6038;BME280;3047;42.600;23.470;2023-03-11T10:16:47;91171.75;;;13.95;80.72
6038;BME280;3047;42.600;23.470;2023-03-11T10:19:27;91181.16;;;14.17;75.62
6038;BME280;3047;42.600;23.470;2023-03-11T10:22:02;91183.81;;;14.16;77.83
6038;BME280;3047;42.600;23.470;2023-03-11T10:24:58;91196.06;;;14.22;73.92
6038;BME280;3047;42.600;23.470;2023-03-11T10:27:29;91171.81;;;14.18;74.75
6038;BME280;3047;42.600;23.470;2023-03-11T10:30:02;91180.50;;;14.26;74.73
6038;BME280;3047;42.600;23.470;2023-03-11T10:32:37;91186.97;;;14.30;75.23
6038;BME280;3047;42.600;23.470;2023-03-11T10:35:14;91188.81;;;14.28;72.84
6038;BME280;3047;42.600;23.470;2023-03-11T10:37:47;91186.66;;;14.35;71.96
6038;BME280;3047;42.600;23.470;2023-03-11T10:40:22;91191.25;;;14.41;75.62
6038;BME280;3047;42.600;23.470;2023-03-11T10:42:53;91190.28;;;14.55;71.80
6038;BME280;3047;42.600;23.470;2023-03-11T10:45:21;91187.19;;;14.63;72.36
6038;BME280;3047;42.600;23.470;2023-03-11T10:47:48;91192.75;;;14.79;73.81
6038;BME280;3047;42.600;23.470;2023-03-11T10:50:17;91194.47;;;14.90;71.01
6038;BME280;3047;42.600;23.470;2023-03-11T10:53:04;91133.94;;;14.61;72.95
6038;BME280;3047;42.600;23.470;2023-03-11T10:55:33;91179.31;;;14.66;69.91
6038;BME280;3047;42.600;23.470;2023-03-11T10:58:05;91170.09;;;14.65;71.79
6038;BME280;3047;42.600;23.470;2023-03-11T11:00:32;91190.88;;;14.81;70.35
6038;BME280;3047;42.600;23.470;2023-03-11T11:02:59;91191.13;;;14.67;70.89
6038;BME280;3047;42.600;23.470;2023-03-11T11:05:29;91192.94;;;14.53;71.04
6038;BME280;3047;42.600;23.470;2023-03-11T11:08:06;91191.25;;;14.41;72.65
6038;BME280;3047;42.600;23.470;2023-03-11T11:10:35;91209.28;;;14.38;74.01
6038;BME280;3047;42.600;23.470;2023-03-11T11:13:15;91211.38;;;14.09;78.41
6038;BME280;3047;42.600;23.470;2023-03-11T11:15:51;91208.09;;;13.72;85.13
6038;BME280;3047;42.600;23.470;2023-03-11T11:18:21;91205.94;;;13.54;86.70
6038;BME280;3047;42.600;23.470;2023-03-11T11:21:00;91205.19;;;13.41;89.22
6038;BME280;3047;42.600;23.470;2023-03-11T11:23:35;91197.03;;;13.25;93.90
6038;BME280;3047;42.600;23.470;2023-03-11T11:26:05;91196.59;;;13.31;96.41
6038;BME280;3047;42.600;23.470;2023-03-11T11:28:33;91188.94;;;13.44;95.61
6038;BME280;3047;42.600;23.470;2023-03-11T11:31:03;91175.31;;;13.45;91.22
6038;BME280;3047;42.600;23.470;2023-03-11T11:33:32;91169.25;;;13.47;90.30
6038;BME280;3047;42.600;23.470;2023-03-11T11:36:01;91172.38;;;13.51;88.50
6038;BME280;3047;42.600;23.470;2023-03-11T11:38:30;91171.25;;;13.55;89.74
6038;BME280;3047;42.600;23.470;2023-03-11T11:41:00;91173.56;;;13.58;89.93
6038;BME280;3047;42.600;23.470;2023-03-11T11:43:45;91168.81;;;13.53;92.26
6038;BME280;3047;42.600;23.470;2023-03-11T11:46:19;91164.97;;;13.48;94.33
6038;BME280;3047;42.600;23.470;2023-03-11T11:48:53;91151.69;;;13.44;98.26
6038;BME280;3047;42.600;23.470;2023-03-11T11:51:25;91147.81;;;13.51;94.45
6038;BME280;3047;42.600;23.470;2023-03-11T11:53:57;91139.00;;;13.68;99.03
6038;BME280;3047;42.600;23.470;2023-03-11T11:56:27;91124.38;;;13.72;97.21
6038;BME280;3047;42.600;23.470;2023-03-11T11:58:55;91127.31;;;13.78;96.33
6038;BME280;3047;42.600;23.470;2023-03-11T12:01:30;91121.69;;;13.86;95.03
6038;BME280;3047;42.600;23.470;2023-03-11T12:04:23;91118.94;;;14.00;92.88
6038;BME280;3047;42.600;23.470;2023-03-11T12:07:03;91127.75;;;14.19;91.95
6038;BME280;3047;42.600;23.470;2023-03-11T12:09:36;91130.16;;;14.20;90.15
6038;BME280;3047;42.600;23.470;2023-03-11T12:12:11;91134.56;;;14.18;85.84
6038;BME280;3047;42.600;23.470;2023-03-11T12:14:46;91139.63;;;14.18;87.37
6038;BME280;3047;42.600;23.470;2023-03-11T12:17:18;91133.84;;;14.16;83.34
6038;BME280;3047;42.600;23.470;2023-03-11T12:19:51;91148.53;;;14.24;83.17
6038;BME280;3047;42.600;23.470;2023-03-11T12:25:27;91130.38;;;14.17;80.12
6038;BME280;3047;42.600;23.470;2023-03-11T12:28:01;91130.16;;;14.20;80.91
6038;BME280;3047;42.600;23.470;2023-03-11T12:30:40;91112.84;;;14.14;79.79
6038;BME280;3047;42.600;23.470;2023-03-11T12:33:14;91137.34;;;14.26;77.80
6038;BME280;3047;42.600;23.470;2023-03-11T12:35:48;91135.47;;;14.17;80.63
6038;BME280;3047;42.600;23.470;2023-03-11T12:38:20;91137.41;;;14.14;76.32
6038;BME280;3047;42.600;23.470;2023-03-11T12:40:59;91132.47;;;14.23;78.71
6038;BME280;3047;42.600;23.470;2023-03-11T12:47:12;91123.69;;;14.16;78.34
6038;BME280;3047;42.600;23.470;2023-03-11T12:49:43;91121.84;;;14.29;74.65
6038;BME280;3047;42.600;23.470;2023-03-11T12:52:22;91136.09;;;14.43;75.94
6038;BME280;3047;42.600;23.470;2023-03-11T12:55:28;91126.72;;;14.32;76.63
6038;BME280;3047;42.600;23.470;2023-03-11T12:58:01;91141.28;;;14.42;75.22
6038;BME280;3047;42.600;23.470;2023-03-11T13:00:42;91116.53;;;14.21;76.44
6038;BME280;3047;42.600;23.470;2023-03-11T13:03:33;91144.06;;;14.39;74.38
6038;BME280;3047;42.600;23.470;2023-03-11T13:06:16;91150.28;;;14.34;76.81
6038;BME280;3047;42.600;23.470;2023-03-11T13:08:47;91154.88;;;14.29;76.73
6038;BME280;3047;42.600;23.470;2023-03-11T13:11:34;91150.72;;;14.28;75.46
6038;BME280;3047;42.600;23.470;2023-03-11T13:14:14;91152.78;;;14.23;78.11
6038;BME280;3047;42.600;23.470;2023-03-11T13:16:45;91148.50;;;14.13;75.59
6038;BME280;3047;42.600;23.470;2023-03-11T13:19:37;91155.19;;;14.14;77.85
6038;BME280;3047;42.600;23.470;2023-03-11T13:25:25;91140.94;;;13.89;76.59
6038;BME280;3047;42.600;23.470;2023-03-11T13:27:56;91176.00;;;14.19;76.97
6038;BME280;3047;42.600;23.470;2023-03-11T13:30:27;91177.34;;;14.12;77.19